Terminal Aerodrome Forecast
Issued by NWS

Home | Current Version | Previous Version | Graphics & Text | Print | Product List | Glossary On
Versions: 1 2 3 4 5 6 7 8 9 10 11 12 13 14 15 16 17 18 19 20 21
000
FTUS43 KLSX 140824 AAA
TAFSUS
TAF AMD
KSUS 140824Z 1408/1506 12006KT P6SM OVC050
     FM141300 12010KT 3SM -SN OVC020
     FM141400 13012KT 2SM -SN OVC010
     FM141700 15010KT P6SM -FZDZSN OVC015
     FM150000 15007KT P6SM OVC015
     FM150400 18006KT P6SM BKN040=

USA.gov is the U.S. government's official web portal to all federal, state and local government web resources and services.